createdAt,value
2019-04-30T00:01:07.516Z,52.61
2019-04-30T00:04:20.410Z,52.69
2019-04-30T00:07:26.250Z,53.85
2019-04-30T00:10:36.995Z,52.70
2019-04-30T00:13:39.491Z,53.75
2019-04-30T00:16:45.237Z,53.44
2019-04-30T00:19:55.811Z,55.13
2019-04-30T00:22:59.538Z,54.57
2019-04-30T00:26:10.300Z,54.22
2019-04-30T00:29:19.110Z,53.39
2019-04-30T00:32:20.321Z,53.44
2019-04-30T00:35:26.092Z,53.41
2019-04-30T00:38:36.046Z,54.11
2019-04-30T00:41:39.876Z,54.76
2019-04-30T00:44:46.919Z,54.63
2019-04-30T00:47:52.609Z,55.05
2019-04-30T00:50:58.901Z,54.39
2019-04-30T00:54:05.649Z,56.20
2019-04-30T00:57:11.543Z,54.74
2019-04-30T01:00:25.054Z,54.31
2019-04-30T01:03:29.002Z,54.60
2019-04-30T01:06:35.019Z,54.79
2019-04-30T01:09:46.480Z,55.23
2019-04-30T01:12:50.462Z,54.56
2019-04-30T01:15:56.214Z,54.96
2019-04-30T01:19:05.696Z,54.47
2019-04-30T01:22:10.688Z,54.20
2019-04-30T01:25:16.650Z,54.61
2019-04-30T01:28:24.308Z,54.69
2019-04-30T01:31:31.662Z,55.94
2019-04-30T01:34:39.388Z,55.82
2019-04-30T01:37:46.063Z,55.65
2019-04-30T01:40:51.864Z,55.50
2019-04-30T01:43:58.525Z,54.81
2019-04-30T01:47:04.340Z,55.16
2019-04-30T01:50:10.221Z,54.75
2019-04-30T01:53:15.997Z,56.47
2019-04-30T01:56:31.272Z,55.58
2019-04-30T01:59:54.621Z,55.61
2019-04-30T02:03:00.462Z,55.88
2019-04-30T02:06:06.124Z,56.54
2019-04-30T02:09:12.160Z,57.08
2019-04-30T02:12:19.705Z,56.58
2019-04-30T02:15:25.363Z,55.94
2019-04-30T02:18:31.149Z,55.91
2019-04-30T02:21:38.516Z,55.82
2019-04-30T02:24:44.344Z,55.33
2019-04-30T02:27:50.018Z,55.21
2019-04-30T02:30:55.773Z,57.16
2019-04-30T02:34:10.246Z,55.13
2019-04-30T02:37:21.134Z,54.18
2019-04-30T02:40:29.989Z,54.74
2019-04-30T02:43:35.949Z,54.73
2019-04-30T02:46:44.239Z,55.94
2019-04-30T02:49:53.428Z,56.31
2019-04-30T02:53:00.235Z,56.31
2019-04-30T02:56:06.506Z,55.75
2019-04-30T02:59:12.460Z,55.88
2019-04-30T03:02:19.545Z,56.55
2019-04-30T03:05:25.395Z,56.78
2019-04-30T03:08:31.137Z,56.78
2019-04-30T03:11:40.132Z,56.55
2019-04-30T03:14:44.400Z,56.76
2019-04-30T03:18:19.670Z,56.64
2019-04-30T03:21:53.685Z,56.33
2019-04-30T03:24:59.796Z,56.30
2019-04-30T03:28:05.653Z,57.00
2019-04-30T03:31:12.956Z,57.67
2019-04-30T03:34:25.152Z,57.67
2019-04-30T03:37:26.041Z,57.63
2019-04-30T03:40:31.734Z,56.96
2019-04-30T03:43:39.885Z,57.41
2019-04-30T03:46:44.882Z,57.53
2019-04-30T03:49:50.583Z,58.43
2019-04-30T03:52:56.265Z,58.99
2019-04-30T03:56:02.013Z,57.88
2019-04-30T03:59:10.116Z,56.69
2019-04-30T04:02:43.212Z,56.24
2019-04-30T04:05:54.541Z,55.91
2019-04-30T04:09:06.794Z,57.11
2019-04-30T04:12:21.842Z,57.69
2019-04-30T04:15:29.755Z,57.19
2019-04-30T04:18:34.932Z,56.47
2019-04-30T04:21:40.616Z,56.38
2019-04-30T04:24:46.480Z,56.23
2019-04-30T04:27:52.184Z,55.48
2019-04-30T04:31:00.165Z,55.65
2019-04-30T04:34:05.455Z,54.46
2019-04-30T04:37:11.166Z,53.20
2019-04-30T04:40:17.156Z,51.77
2019-04-30T04:43:22.976Z,52.25
2019-04-30T04:46:30.782Z,52.32
2019-04-30T04:49:36.095Z,52.22
2019-04-30T04:52:41.772Z,51.90
2019-04-30T04:55:49.697Z,51.50
2019-04-30T04:58:54.836Z,50.56
2019-04-30T05:02:03.283Z,50.36
2019-04-30T05:05:09.655Z,50.58
2019-04-30T05:08:15.515Z,49.94
2019-04-30T05:11:21.223Z,49.62
2019-04-30T05:14:28.826Z,48.58
2019-04-30T05:17:34.384Z,47.26
2019-04-30T05:20:41.700Z,48.10
2019-04-30T05:23:49.294Z,48.05
2019-04-30T05:26:55.380Z,47.55
2019-04-30T05:30:01.055Z,47.25
2019-04-30T05:33:08.710Z,46.02
2019-04-30T05:36:14.181Z,46.44
2019-04-30T05:39:20.409Z,45.98
2019-04-30T05:42:28.245Z,45.86
2019-04-30T05:45:34.001Z,45.10
2019-04-30T05:48:39.877Z,44.40
2019-04-30T05:51:53.570Z,44.57
2019-04-30T05:54:53.052Z,45.23
2019-04-30T05:58:01.406Z,44.73
2019-04-30T06:01:06.309Z,44.61
2019-04-30T06:04:12.023Z,44.23
2019-04-30T06:07:18.928Z,44.71
2019-04-30T06:10:51.847Z,43.99
2019-04-30T06:14:15.214Z,44.21
2019-04-30T06:17:21.763Z,44.16
2019-04-30T06:20:28.836Z,42.84
2019-04-30T06:23:34.764Z,43.48
2019-04-30T06:26:40.532Z,42.64
2019-04-30T06:29:46.655Z,44.36
2019-04-30T06:32:52.937Z,45.42
2019-04-30T06:35:59.496Z,45.01
2019-04-30T06:39:06.177Z,45.74
2019-04-30T06:42:13.006Z,44.27
2019-04-30T06:45:19.380Z,43.28
2019-04-30T06:48:26.438Z,43.08
2019-04-30T06:51:32.333Z,42.77
2019-04-30T06:54:39.734Z,42.84
2019-04-30T06:57:45.626Z,43.56
2019-04-30T07:00:51.666Z,42.08
2019-04-30T07:04:00.754Z,42.30
2019-04-30T07:07:23.074Z,42.22
2019-04-30T07:10:30.131Z,42.44
2019-04-30T07:13:35.970Z,41.48
2019-04-30T07:16:41.625Z,40.90
2019-04-30T07:19:54.245Z,39.92
2019-04-30T07:23:00.782Z,41.02
2019-04-30T07:26:02.281Z,40.40
2019-04-30T07:29:09.553Z,40.08
2019-04-30T07:32:15.704Z,40.98
2019-04-30T07:35:21.572Z,40.27
2019-04-30T07:38:29.371Z,40.52
2019-04-30T07:41:34.688Z,40.98
2019-04-30T07:44:40.504Z,42.21
2019-04-30T07:47:46.236Z,41.53
2019-04-30T07:50:52.406Z,40.62
2019-04-30T07:53:58.999Z,41.64
2019-04-30T07:57:05.234Z,41.86
2019-04-30T08:00:11.160Z,40.29
2019-04-30T08:03:39.805Z,39.53
2019-04-30T08:06:49.824Z,39.67
2019-04-30T08:09:55.911Z,38.64
2019-04-30T08:13:10.528Z,38.98
2019-04-30T08:16:09.855Z,38.98
2019-04-30T08:19:15.779Z,38.47
2019-04-30T08:22:21.446Z,40.21
2019-04-30T08:25:29.086Z,39.47
2019-04-30T08:28:35.986Z,38.41
2019-04-30T08:31:41.660Z,38.52
2019-04-30T08:34:47.501Z,37.23
2019-04-30T08:37:53.403Z,36.00
2019-04-30T08:41:00.848Z,35.69
2019-04-30T08:44:06.869Z,36.14
2019-04-30T08:47:12.601Z,36.02
2019-04-30T08:50:19.900Z,36.67
2019-04-30T08:53:30.164Z,37.49
2019-04-30T08:56:34.828Z,36.38
2019-04-30T08:59:43.756Z,36.21
2019-04-30T09:02:52.162Z,37.49
2019-04-30T09:06:11.904Z,38.59
2019-04-30T09:09:22.052Z,37.36
2019-04-30T09:12:29.861Z,36.92
2019-04-30T09:15:35.577Z,35.89
2019-04-30T09:18:41.398Z,35.74
2019-04-30T09:21:48.835Z,35.32
2019-04-30T09:24:56.219Z,35.72
2019-04-30T09:28:04.459Z,35.09
2019-04-30T09:31:09.865Z,35.58
2019-04-30T09:34:18.579Z,35.65
2019-04-30T09:37:22.954Z,35.73
2019-04-30T09:40:32.328Z,35.28
2019-04-30T09:43:36.030Z,34.58
2019-04-30T09:46:41.752Z,32.29
2019-04-30T09:49:49.358Z,33.08
2019-04-30T09:52:54.930Z,33.25
2019-04-30T09:56:00.572Z,32.06
2019-04-30T09:59:06.480Z,31.97
2019-04-30T10:02:12.839Z,32.70
2019-04-30T10:05:20.168Z,32.48
2019-04-30T10:08:26.809Z,33.33
2019-04-30T10:11:46.010Z,32.99
2019-04-30T10:14:51.723Z,35.35
2019-04-30T10:17:57.455Z,33.63
2019-04-30T10:21:03.237Z,33.36
2019-04-30T10:24:14.847Z,33.00
2019-04-30T10:27:18.914Z,32.74
2019-04-30T10:30:29.216Z,32.95
2019-04-30T10:33:35.129Z,32.68
2019-04-30T10:36:41.527Z,32.38
2019-04-30T10:39:48.981Z,32.21
2019-04-30T10:42:54.860Z,31.49
2019-04-30T10:46:00.504Z,30.58
2019-04-30T10:49:06.483Z,29.72
2019-04-30T10:52:12.285Z,29.96
2019-04-30T10:55:18.403Z,29.62
2019-04-30T10:58:24.195Z,30.22
2019-04-30T11:01:30.183Z,30.84
2019-04-30T11:04:35.985Z,30.26
2019-04-30T11:07:41.761Z,29.37
2019-04-30T11:10:47.623Z,28.77
2019-04-30T11:13:53.338Z,28.17
2019-04-30T11:17:00.011Z,28.09
2019-04-30T11:20:06.298Z,28.07
2019-04-30T11:23:14.534Z,27.42
2019-04-30T11:26:20.133Z,27.95
2019-04-30T11:29:26.225Z,27.82
2019-04-30T11:32:32.259Z,27.89
2019-04-30T11:35:39.485Z,28.16
2019-04-30T11:38:45.309Z,28.84
2019-04-30T11:41:51.188Z,28.07
2019-04-30T11:44:58.672Z,27.11
2019-04-30T11:48:04.610Z,27.48
2019-04-30T11:51:10.386Z,27.27
2019-04-30T11:54:16.092Z,27.60
2019-04-30T11:57:22.000Z,27.52
2019-04-30T12:00:33.196Z,28.05
2019-04-30T12:03:39.435Z,28.38
2019-04-30T12:06:45.296Z,28.35
2019-04-30T12:10:01.628Z,28.74
2019-04-30T12:13:26.051Z,28.25
2019-04-30T12:16:33.704Z,27.23
2019-04-30T12:19:39.218Z,28.00
2019-04-30T12:22:45.062Z,27.75
2019-04-30T12:25:50.798Z,28.72
2019-04-30T12:28:56.565Z,29.34
2019-04-30T12:32:02.309Z,29.24
2019-04-30T12:35:09.314Z,28.44
2019-04-30T12:38:15.072Z,28.06
2019-04-30T12:41:20.762Z,29.19
2019-04-30T12:44:26.545Z,28.83
2019-04-30T12:47:34.150Z,28.51
2019-04-30T12:50:49.406Z,28.45
2019-04-30T12:54:01.988Z,28.75
2019-04-30T12:57:32.632Z,28.91
2019-04-30T13:00:39.223Z,29.79
2019-04-30T13:03:55.885Z,32.16
2019-04-30T13:06:52.963Z,32.68
2019-04-30T13:10:01.316Z,33.02
2019-04-30T13:13:08.232Z,32.63
2019-04-30T13:16:14.253Z,32.11
2019-04-30T13:19:19.931Z,32.10
2019-04-30T13:22:25.653Z,32.32
2019-04-30T13:25:35.501Z,32.34
2019-04-30T13:28:55.418Z,32.20
2019-04-30T13:32:01.100Z,31.83
2019-04-30T13:35:11.709Z,31.47
2019-04-30T13:38:26.444Z,31.09
2019-04-30T13:41:52.494Z,31.01
2019-04-30T13:44:58.255Z,30.36
2019-04-30T13:48:04.144Z,30.34
2019-04-30T13:51:09.845Z,29.44
2019-04-30T13:54:15.522Z,29.62
2019-04-30T13:57:21.259Z,29.59
2019-04-30T14:00:29.710Z,29.23
2019-04-30T14:03:40.950Z,28.75
2019-04-30T14:07:00.165Z,28.33
2019-04-30T14:10:09.863Z,28.07
2019-04-30T14:13:14.191Z,27.53
2019-04-30T14:16:20.411Z,27.23
2019-04-30T14:19:26.404Z,27.26
2019-04-30T14:22:32.183Z,26.61
2019-04-30T14:25:38.026Z,26.90
2019-04-30T14:28:43.809Z,26.39
2019-04-30T14:31:49.520Z,26.39
2019-04-30T14:34:56.255Z,26.33
2019-04-30T14:38:05.008Z,26.35
2019-04-30T14:41:10.195Z,25.56
2019-04-30T14:44:21.398Z,26.25
2019-04-30T14:47:46.945Z,27.39
2019-04-30T14:50:53.750Z,28.29
2019-04-30T14:54:19.985Z,28.54
2019-04-30T14:57:43.423Z,28.88
2019-04-30T15:01:09.353Z,29.00
2019-04-30T15:04:15.430Z,29.42
2019-04-30T15:07:21.100Z,29.66
2019-04-30T15:10:26.899Z,29.35
2019-04-30T15:13:32.734Z,28.21
2019-04-30T15:16:38.483Z,28.13
2019-04-30T15:19:44.453Z,28.67
2019-04-30T15:23:04.225Z,28.68
2019-04-30T15:26:21.373Z,28.77
2019-04-30T15:29:19.121Z,28.79
2019-04-30T15:32:24.952Z,29.19
2019-04-30T15:35:30.724Z,29.06
2019-04-30T15:38:54.439Z,29.16
2019-04-30T15:42:01.111Z,29.23
2019-04-30T15:45:09.175Z,29.28
2019-04-30T15:48:14.851Z,29.70
2019-04-30T15:51:20.740Z,30.09
2019-04-30T15:54:26.449Z,30.29
2019-04-30T15:57:32.162Z,30.67
2019-04-30T16:00:39.377Z,30.71
2019-04-30T16:03:47.171Z,30.62
2019-04-30T16:06:52.843Z,30.57
2019-04-30T16:10:14.911Z,30.40
2019-04-30T16:13:22.462Z,30.31
2019-04-30T16:16:32.092Z,30.57
2019-04-30T16:19:37.756Z,30.71
2019-04-30T16:22:44.019Z,31.34
2019-04-30T16:25:49.737Z,31.22
2019-04-30T16:28:55.419Z,31.10
2019-04-30T16:32:01.176Z,31.76
2019-04-30T16:35:08.930Z,32.01
2019-04-30T16:38:14.681Z,31.97
2019-04-30T16:41:31.034Z,31.91
2019-04-30T16:44:28.139Z,31.87
2019-04-30T16:47:34.113Z,31.57
2019-04-30T16:50:40.943Z,31.58
2019-04-30T16:53:48.617Z,31.49
2019-04-30T16:57:03.488Z,31.43
2019-04-30T17:00:02.225Z,30.93
2019-04-30T17:03:18.963Z,30.43
2019-04-30T17:06:26.458Z,30.68
2019-04-30T17:09:54.312Z,30.91
2019-04-30T17:13:15.330Z,31.36
2019-04-30T17:16:22.482Z,31.27
2019-04-30T17:19:29.206Z,31.87
2019-04-30T17:22:39.459Z,32.36
2019-04-30T17:25:45.398Z,32.99
2019-04-30T17:28:51.144Z,33.45
2019-04-30T17:31:56.973Z,33.00
2019-04-30T17:35:02.972Z,32.98
2019-04-30T17:38:09.277Z,34.53
2019-04-30T17:41:15.166Z,36.06
2019-04-30T17:44:20.872Z,36.35
2019-04-30T17:47:31.257Z,36.88
2019-04-30T17:50:42.918Z,36.98
2019-04-30T17:54:06.486Z,37.44
2019-04-30T17:57:16.092Z,37.27
2019-04-30T18:00:23.647Z,37.48
2019-04-30T18:03:29.550Z,37.84
2019-04-30T18:06:35.506Z,38.26
2019-04-30T18:09:41.963Z,38.43
2019-04-30T18:12:48.841Z,38.03
2019-04-30T18:15:54.906Z,37.93
2019-04-30T18:19:08.824Z,37.16
2019-04-30T18:22:29.378Z,35.88
2019-04-30T18:25:40.558Z,34.16
2019-04-30T18:28:47.253Z,34.06
2019-04-30T18:31:53.674Z,34.52
2019-04-30T18:34:59.382Z,34.37
2019-04-30T18:38:06.340Z,34.77
2019-04-30T18:41:12.052Z,34.75
2019-04-30T18:44:19.549Z,35.08
2019-04-30T18:47:25.931Z,34.89
2019-04-30T18:50:31.736Z,34.78
2019-04-30T18:53:39.761Z,34.36
2019-04-30T18:56:45.545Z,34.53
2019-04-30T18:59:51.313Z,34.38
2019-04-30T19:02:58.637Z,33.86
2019-04-30T19:06:22.281Z,33.86
2019-04-30T19:09:31.220Z,33.63
2019-04-30T19:13:02.063Z,33.32
2019-04-30T19:16:29.396Z,33.40
2019-04-30T19:19:48.806Z,33.68
2019-04-30T19:22:55.234Z,33.99
2019-04-30T19:26:04.107Z,34.40
2019-04-30T19:29:11.819Z,34.56
2019-04-30T19:32:20.790Z,34.49
2019-04-30T19:35:27.339Z,34.41
2019-04-30T19:38:35.177Z,34.20
2019-04-30T19:41:55.086Z,34.03
2019-04-30T19:45:09.461Z,34.02
2019-04-30T19:48:09.028Z,33.96
2019-04-30T19:51:14.794Z,34.34
2019-04-30T19:54:20.546Z,34.66
2019-04-30T19:57:26.192Z,34.86
2019-04-30T20:00:32.016Z,35.01
2019-04-30T20:03:37.688Z,35.22
2019-04-30T20:06:43.504Z,35.62
2019-04-30T20:10:00.202Z,35.52
2019-04-30T20:12:58.644Z,35.74
2019-04-30T20:16:04.287Z,35.67
2019-04-30T20:19:09.953Z,35.63
2019-04-30T20:22:16.139Z,36.36
2019-04-30T20:25:21.970Z,36.70
2019-04-30T20:28:38.456Z,36.59
2019-04-30T20:31:35.160Z,36.61
2019-04-30T20:34:40.879Z,36.83
2019-04-30T20:38:03.955Z,36.97
2019-04-30T20:41:10.360Z,36.85
2019-04-30T20:44:16.072Z,36.74
2019-04-30T20:47:21.800Z,36.40
2019-04-30T20:50:27.548Z,37.08
2019-04-30T20:53:33.285Z,37.19
2019-04-30T20:56:39.075Z,37.00
2019-04-30T20:59:44.774Z,37.65
2019-04-30T21:02:50.469Z,37.50
2019-04-30T21:05:56.250Z,38.01
2019-04-30T21:09:01.965Z,37.83
2019-04-30T21:12:09.292Z,37.60
2019-04-30T21:15:15.238Z,37.99
2019-04-30T21:18:20.934Z,38.10
2019-04-30T21:21:28.378Z,38.27
2019-04-30T21:24:34.032Z,38.07
2019-04-30T21:27:40.222Z,37.88
2019-04-30T21:30:46.188Z,38.60
2019-04-30T21:33:54.588Z,38.52
2019-04-30T21:37:00.447Z,38.42
2019-04-30T21:40:06.502Z,38.08
2019-04-30T21:43:12.233Z,38.24
2019-04-30T21:46:19.201Z,38.10
2019-04-30T21:49:25.090Z,38.43
2019-04-30T21:52:30.874Z,38.49
2019-04-30T21:55:36.577Z,39.10
2019-04-30T21:58:42.265Z,39.38
2019-04-30T22:01:48.291Z,39.91
2019-04-30T22:04:55.123Z,40.37
2019-04-30T22:08:01.021Z,40.20
2019-04-30T22:11:06.697Z,39.71
2019-04-30T22:14:12.507Z,40.18
2019-04-30T22:17:19.302Z,40.77
2019-04-30T22:20:25.148Z,39.99
2019-04-30T22:23:30.862Z,40.51
2019-04-30T22:26:36.559Z,40.19
2019-04-30T22:29:42.410Z,40.20
2019-04-30T22:32:48.305Z,40.73
2019-04-30T22:36:02.327Z,40.52
2019-04-30T22:39:36.590Z,40.84
2019-04-30T22:42:42.379Z,41.17
2019-04-30T22:46:01.121Z,41.10
2019-04-30T22:49:06.838Z,41.41
2019-04-30T22:52:12.613Z,41.00
2019-04-30T22:55:18.269Z,41.19
2019-04-30T22:58:24.142Z,41.32
2019-04-30T23:01:39.163Z,41.53
2019-04-30T23:04:46.563Z,41.85
2019-04-30T23:07:52.403Z,41.28
2019-04-30T23:10:58.122Z,41.53
2019-04-30T23:14:03.922Z,41.66
2019-04-30T23:17:11.611Z,41.45
2019-04-30T23:20:17.935Z,41.84
2019-04-30T23:23:23.664Z,41.73
2019-04-30T23:26:29.366Z,41.73
2019-04-30T23:29:35.148Z,42.22
2019-04-30T23:32:40.904Z,42.22
2019-04-30T23:35:46.583Z,42.34
2019-04-30T23:38:52.269Z,41.81
2019-04-30T23:41:57.952Z,42.08
2019-04-30T23:45:03.639Z,42.27
2019-04-30T23:48:09.366Z,42.33
2019-04-30T23:51:15.151Z,42.74
2019-04-30T23:54:21.008Z,42.48
2019-04-30T23:57:26.717Z,42.49
